createdAt,value
2022-11-18T00:01:15.752Z,97711.72
2022-11-18T00:03:43.878Z,97720.19
2022-11-18T00:06:14.217Z,97718.50
2022-11-18T00:08:41.930Z,97724.47
2022-11-18T00:11:39.347Z,97732.00
2022-11-18T00:14:23.182Z,97728.66
2022-11-18T00:16:53.185Z,97732.00
2022-11-18T00:19:25.037Z,97732.78
2022-11-18T00:21:52.239Z,97741.16
2022-11-18T00:24:19.257Z,97730.94
2022-11-18T00:26:46.133Z,97735.13
2022-11-18T00:29:13.482Z,97737.78
2022-11-18T00:31:40.264Z,97742.88
2022-11-18T00:34:07.883Z,97741.34
2022-11-18T00:36:34.578Z,97740.50
2022-11-18T00:39:05.561Z,97740.50
2022-11-18T00:41:58.402Z,97748.94
2022-11-18T00:44:25.467Z,97746.50
2022-11-18T00:46:53.111Z,97748.22
2022-11-18T00:49:19.913Z,97749.09
2022-11-18T00:51:46.711Z,97753.22
2022-11-18T00:54:13.545Z,97748.16
2022-11-18T00:56:40.267Z,97757.44
2022-11-18T00:59:07.251Z,97757.44
2022-11-18T01:01:34.243Z,97760.78
2022-11-18T01:04:01.068Z,97757.25
2022-11-18T01:06:29.442Z,97757.22
2022-11-18T01:08:56.316Z,97762.22
2022-11-18T01:11:41.414Z,97769.00
2022-11-18T01:14:08.148Z,97765.56
2022-11-18T01:16:34.868Z,97771.53
2022-11-18T01:19:02.170Z,97767.34
2022-11-18T01:21:29.660Z,97774.19
2022-11-18T01:23:56.449Z,97778.47
2022-11-18T01:26:23.131Z,97771.00
2022-11-18T01:28:49.991Z,97780.47
2022-11-18T01:31:19.466Z,97777.25
2022-11-18T01:33:47.046Z,97788.41
2022-11-18T01:36:27.159Z,97792.06
2022-11-18T01:38:55.030Z,97794.81
2022-11-18T01:41:25.941Z,97808.47
2022-11-18T01:44:06.559Z,97806.94
2022-11-18T01:46:34.510Z,97804.63
2022-11-18T01:49:07.681Z,97804.69
2022-11-18T01:51:47.337Z,97807.41
2022-11-18T01:54:26.744Z,97821.13
2022-11-18T01:57:01.842Z,97817.94
2022-11-18T01:59:36.011Z,97829.97
2022-11-18T02:02:11.084Z,97816.59
2022-11-18T02:04:41.984Z,97826.94
2022-11-18T02:07:10.302Z,97824.53
2022-11-18T02:09:38.461Z,97832.31
2022-11-18T02:12:07.867Z,97825.69
2022-11-18T02:14:40.019Z,97832.59
2022-11-18T02:17:45.712Z,97843.69
2022-11-18T02:20:42.497Z,97842.22
2022-11-18T02:23:53.627Z,97845.72
2022-11-18T02:27:08.342Z,97851.78
2022-11-18T02:29:45.260Z,97845.19
2022-11-18T02:32:24.777Z,97849.41
2022-11-18T02:35:14.599Z,97852.88
2022-11-18T02:37:58.639Z,97852.13
2022-11-18T02:40:39.505Z,97859.72
2022-11-18T02:43:16.961Z,97861.47
2022-11-18T02:45:51.076Z,97866.59
2022-11-18T02:48:22.137Z,97864.09
2022-11-18T02:50:51.689Z,97875.94
2022-11-18T02:53:21.572Z,97882.75
2022-11-18T02:55:49.797Z,97878.59
2022-11-18T02:58:20.358Z,97871.88
2022-11-18T03:00:59.441Z,97878.63
2022-11-18T03:03:33.241Z,97873.56
2022-11-18T03:06:36.929Z,97885.31
2022-11-18T03:09:14.477Z,97892.91
2022-11-18T03:12:25.210Z,97886.97
2022-11-18T03:15:13.437Z,97902.16
2022-11-18T03:18:19.253Z,97892.81
2022-11-18T03:21:06.399Z,97893.66
2022-11-18T03:23:41.346Z,97907.03
2022-11-18T03:26:23.036Z,97896.81
2022-11-18T03:29:05.689Z,97906.81
2022-11-18T03:31:45.212Z,97900.75
2022-11-18T03:34:25.328Z,97905.69
2022-11-18T03:37:01.117Z,97925.78
2022-11-18T03:39:33.955Z,97926.53
2022-11-18T03:42:14.382Z,97917.97
2022-11-18T03:44:52.513Z,97932.19
2022-11-18T03:47:46.516Z,97928.69
2022-11-18T03:50:30.551Z,97933.63
2022-11-18T03:52:59.742Z,97930.22
2022-11-18T03:55:41.230Z,97932.53
2022-11-18T03:58:42.790Z,97940.06
2022-11-18T04:01:18.462Z,97947.66
2022-11-18T04:03:45.328Z,97946.63
2022-11-18T04:06:38.250Z,97942.38
2022-11-18T04:09:17.326Z,97943.97
2022-11-18T04:12:04.031Z,97952.28
2022-11-18T04:14:40.994Z,97946.28
2022-11-18T04:17:17.812Z,97957.16
2022-11-18T04:19:44.587Z,97957.03
2022-11-18T04:22:12.066Z,97967.06
2022-11-18T04:24:39.448Z,97968.63
2022-11-18T04:27:07.924Z,97971.06
2022-11-18T04:29:34.940Z,97976.03
2022-11-18T04:32:03.236Z,97972.56
2022-11-18T04:34:30.792Z,97975.84
2022-11-18T04:36:58.659Z,97977.44
2022-11-18T04:39:25.457Z,97981.59
2022-11-18T04:41:58.264Z,97989.91
2022-11-18T04:44:30.349Z,97994.09
2022-11-18T04:46:59.871Z,97993.19
2022-11-18T04:49:27.572Z,97998.19
2022-11-18T04:51:55.602Z,97997.22
2022-11-18T04:54:24.193Z,98005.56
2022-11-18T04:56:51.508Z,98007.22
2022-11-18T04:59:26.232Z,98006.34
2022-11-18T05:01:54.414Z,98010.50
2022-11-18T05:04:35.621Z,98007.97
2022-11-18T05:07:36.756Z,98007.91
2022-11-18T05:10:31.350Z,98014.72
2022-11-18T05:12:58.120Z,98022.19
2022-11-18T05:15:24.922Z,98022.97
2022-11-18T05:17:51.744Z,98019.50
2022-11-18T05:20:18.616Z,98020.22
2022-11-18T05:22:45.347Z,98030.25
2022-11-18T05:25:12.107Z,98034.38
2022-11-18T05:27:38.809Z,98033.44
2022-11-18T05:30:06.401Z,98031.75
2022-11-18T05:32:33.073Z,98031.63
2022-11-18T05:34:59.826Z,98040.03
2022-11-18T05:37:26.573Z,98042.47
2022-11-18T05:39:53.305Z,98038.16
2022-11-18T05:42:38.783Z,98038.94
2022-11-18T05:45:06.738Z,98045.66
2022-11-18T05:47:53.398Z,98053.16
2022-11-18T05:50:21.577Z,98059.09
2022-11-18T05:52:48.430Z,98044.69
2022-11-18T05:55:17.877Z,98053.09
2022-11-18T05:57:44.642Z,98052.16
2022-11-18T06:00:12.456Z,98056.38
2022-11-18T06:02:42.304Z,98060.59
2022-11-18T06:05:11.388Z,98066.50
2022-11-18T06:07:47.037Z,98073.34
2022-11-18T06:10:26.475Z,98072.53
2022-11-18T06:12:59.801Z,98081.88
2022-11-18T06:15:32.783Z,98078.53
2022-11-18T06:18:11.284Z,98082.00
2022-11-18T06:20:41.221Z,98084.66
2022-11-18T06:23:08.064Z,98089.84
2022-11-18T06:25:39.178Z,98097.50
2022-11-18T06:28:06.875Z,98097.59
2022-11-18T06:30:33.567Z,98105.25
2022-11-18T06:33:00.312Z,98104.44
2022-11-18T06:35:27.099Z,98109.53
2022-11-18T06:37:53.781Z,98112.06
2022-11-18T06:40:20.516Z,98104.53
2022-11-18T06:43:06.005Z,98105.44
2022-11-18T06:45:32.709Z,98107.09
2022-11-18T06:48:04.104Z,98113.97
2022-11-18T06:50:31.285Z,98114.03
2022-11-18T06:53:00.500Z,98126.81
2022-11-18T06:55:27.217Z,98123.53
2022-11-18T06:57:56.739Z,98137.09
2022-11-18T07:00:23.552Z,98138.88
2022-11-18T07:02:50.245Z,98150.75
2022-11-18T07:05:17.022Z,98155.94
2022-11-18T07:07:43.749Z,98167.00
2022-11-18T07:10:10.557Z,98172.13
2022-11-18T07:12:37.392Z,98169.63
2022-11-18T07:15:04.457Z,98168.03
2022-11-18T07:17:31.763Z,98169.75
2022-11-18T07:19:58.526Z,98167.28
2022-11-18T07:22:25.280Z,98174.94
2022-11-18T07:24:52.007Z,98178.34
2022-11-18T07:27:18.726Z,98180.00
2022-11-18T07:29:45.443Z,98179.22
2022-11-18T07:32:12.112Z,98183.41
2022-11-18T07:34:38.983Z,98174.13
2022-11-18T07:37:05.671Z,98183.34
2022-11-18T07:39:32.401Z,98188.38
2022-11-18T07:41:59.273Z,98187.41
2022-11-18T07:44:25.974Z,98187.34
2022-11-18T07:46:52.777Z,98186.38
2022-11-18T07:49:19.903Z,98191.16
2022-11-18T07:51:46.777Z,98195.56
2022-11-18T07:54:17.256Z,98187.69
2022-11-18T07:56:44.128Z,98196.31
2022-11-18T07:59:10.950Z,98209.59
2022-11-18T08:01:37.783Z,98222.75
2022-11-18T08:04:11.471Z,98217.09
2022-11-18T08:06:39.998Z,98214.34
2022-11-18T08:09:08.283Z,98217.06
2022-11-18T08:11:35.812Z,98230.88
2022-11-18T08:14:02.616Z,98229.31
2022-11-18T08:16:29.637Z,98237.34
2022-11-18T08:18:58.661Z,98242.66
2022-11-18T08:21:25.365Z,98238.59
2022-11-18T08:23:55.140Z,98237.56
2022-11-18T08:26:23.158Z,98245.09
2022-11-18T08:28:50.062Z,98247.00
2022-11-18T08:31:26.338Z,98249.34
2022-11-18T08:34:05.739Z,98251.00
2022-11-18T08:36:36.158Z,98252.34
2022-11-18T08:39:08.179Z,98248.44
2022-11-18T08:41:37.674Z,98243.81
2022-11-18T08:44:06.479Z,98240.19
2022-11-18T08:46:33.690Z,98241.00
2022-11-18T08:49:00.627Z,98236.44
2022-11-18T08:51:29.884Z,98237.25
2022-11-18T08:53:56.859Z,98248.09
2022-11-18T08:56:25.132Z,98248.72
2022-11-18T08:58:53.225Z,98230.44
2022-11-18T09:01:20.191Z,98238.13
2022-11-18T09:03:48.402Z,98248.00
2022-11-18T09:06:19.757Z,98247.97
2022-11-18T09:08:47.474Z,98252.31
2022-11-18T09:11:17.918Z,98255.16
2022-11-18T09:14:25.999Z,98258.81
2022-11-18T09:16:35.147Z,98262.03
2022-11-18T09:19:18.624Z,98269.25
2022-11-18T09:21:49.010Z,98271.09
2022-11-18T09:24:16.281Z,98274.84
2022-11-18T09:26:43.249Z,98271.41
2022-11-18T09:29:11.618Z,98281.84
2022-11-18T09:31:38.352Z,98276.03
2022-11-18T09:34:05.352Z,98282.13
2022-11-18T09:36:32.051Z,98289.53
2022-11-18T09:39:00.274Z,98284.78
2022-11-18T09:41:48.508Z,98286.31
2022-11-18T09:44:49.039Z,98296.50
2022-11-18T09:47:27.956Z,98296.91
2022-11-18T09:50:01.793Z,98302.28
2022-11-18T09:52:49.215Z,98309.09
2022-11-18T09:55:18.773Z,98309.03
2022-11-18T09:57:49.309Z,98313.06
2022-11-18T10:00:17.882Z,98313.22
2022-11-18T10:03:15.316Z,98317.38
2022-11-18T10:05:47.859Z,98330.16
2022-11-18T10:08:31.632Z,98319.56
2022-11-18T10:11:18.506Z,98322.16
2022-11-18T10:14:23.976Z,98329.06
2022-11-18T10:17:08.981Z,98336.25
2022-11-18T10:19:56.728Z,98340.25
2022-11-18T10:22:52.805Z,98333.53
2022-11-18T10:25:20.144Z,98346.66
2022-11-18T10:27:49.307Z,98339.25
2022-11-18T10:30:25.361Z,98341.38
2022-11-18T10:33:19.158Z,98344.63
2022-11-18T10:35:46.001Z,98348.84
2022-11-18T10:38:15.400Z,98348.16
2022-11-18T10:41:13.095Z,98342.31
2022-11-18T10:43:52.783Z,98337.28
2022-11-18T10:46:34.968Z,98341.03
2022-11-18T10:49:10.742Z,98335.53
2022-11-18T10:52:14.221Z,98342.13
2022-11-18T10:54:42.294Z,98350.59
2022-11-18T10:57:19.627Z,98340.44
2022-11-18T10:59:54.538Z,98343.97
2022-11-18T11:02:39.921Z,98347.38
2022-11-18T11:05:23.329Z,98350.69
2022-11-18T11:08:36.409Z,98350.84
2022-11-18T11:11:04.436Z,98353.69
2022-11-18T11:13:34.308Z,98358.59
2022-11-18T11:16:06.280Z,98364.09
2022-11-18T11:18:41.401Z,98357.31
2022-11-18T11:21:18.708Z,98363.78
2022-11-18T11:23:46.744Z,98364.59
2022-11-18T11:29:31.205Z,98357.84
2022-11-18T11:32:20.457Z,98366.72
2022-11-18T11:35:23.394Z,98363.41
2022-11-18T11:38:00.982Z,98371.00
2022-11-18T11:40:58.641Z,98369.78
2022-11-18T11:43:49.386Z,98373.91
2022-11-18T11:47:11.828Z,98379.03
2022-11-18T11:50:00.553Z,98374.44
2022-11-18T11:52:55.025Z,98385.91
2022-11-18T11:56:30.151Z,98385.94
2022-11-18T11:59:24.696Z,98384.69
2022-11-18T12:02:41.710Z,98382.56
2022-11-18T12:05:36.072Z,98388.66
2022-11-18T12:08:16.828Z,98394.34
2022-11-18T12:11:41.825Z,98393.31
2022-11-18T12:14:50.744Z,98397.66
2022-11-18T12:17:39.489Z,98394.72
2022-11-18T12:20:49.766Z,98391.72
2022-11-18T12:23:27.417Z,98391.13
2022-11-18T12:26:11.115Z,98393.00
2022-11-18T12:28:42.190Z,98393.97
2022-11-18T12:31:18.247Z,98395.03
2022-11-18T12:34:01.547Z,98393.69
2022-11-18T12:36:35.149Z,98394.78
2022-11-18T12:39:23.553Z,98389.09
2022-11-18T12:42:21.262Z,98400.34
2022-11-18T12:44:51.493Z,98408.31
2022-11-18T12:47:47.388Z,98407.72
2022-11-18T12:50:16.195Z,98408.75
2022-11-18T12:52:42.881Z,98400.47
2022-11-18T12:55:25.437Z,98410.00
2022-11-18T12:57:52.574Z,98403.47
2022-11-18T13:00:25.409Z,98415.56
2022-11-18T13:02:59.984Z,98408.00
2022-11-18T13:05:34.474Z,98410.69
2022-11-18T13:08:14.303Z,98413.38
2022-11-18T13:10:54.470Z,98417.03
2022-11-18T13:13:33.738Z,98418.06
2022-11-18T13:16:38.400Z,98419.19
2022-11-18T13:19:05.652Z,98417.06
2022-11-18T13:21:51.620Z,98424.91
2022-11-18T13:24:22.045Z,98422.75
2022-11-18T13:26:59.212Z,98427.38
2022-11-18T13:30:02.382Z,98432.91
2022-11-18T13:32:30.109Z,98427.22
2022-11-18T13:35:15.040Z,98419.63
2022-11-18T13:37:58.426Z,98434.19
2022-11-18T13:40:37.988Z,98424.19
2022-11-18T13:43:04.824Z,98434.41
2022-11-18T13:45:34.590Z,98430.13
2022-11-18T13:48:12.833Z,98433.56
2022-11-18T13:50:52.610Z,98430.19
2022-11-18T13:53:37.505Z,98432.81
2022-11-18T13:56:07.699Z,98435.47
2022-11-18T14:01:36.327Z,98440.56
2022-11-18T14:04:08.143Z,98438.81
2022-11-18T14:06:41.245Z,98445.56
2022-11-18T14:09:25.764Z,98445.38
2022-11-18T14:12:23.977Z,98445.56
2022-11-18T14:14:51.532Z,98450.63
2022-11-18T14:17:22.413Z,98457.31
2022-11-18T14:19:55.471Z,98447.81
2022-11-18T14:22:30.817Z,98459.72
2022-11-18T14:25:14.257Z,98454.69
2022-11-18T14:27:50.618Z,98452.31
2022-11-18T14:30:36.330Z,98454.88
2022-11-18T14:33:30.284Z,98457.56
2022-11-18T14:36:13.974Z,98458.53
2022-11-18T14:41:49.230Z,98470.78
2022-11-18T14:44:18.551Z,98462.38
2022-11-18T14:46:53.557Z,98454.88
2022-11-18T14:49:24.017Z,98468.59
2022-11-18T14:51:53.151Z,98467.88
2022-11-18T14:54:26.821Z,98473.06
2022-11-18T14:57:00.078Z,98472.47
2022-11-18T14:59:26.992Z,98465.00
2022-11-18T15:01:54.716Z,98471.13
2022-11-18T15:04:22.014Z,98468.81
2022-11-18T15:06:49.250Z,98478.44
2022-11-18T15:09:16.351Z,98482.00
2022-11-18T15:11:43.139Z,98480.59
2022-11-18T15:14:10.035Z,98479.03
2022-11-18T15:16:36.949Z,98490.31
2022-11-18T15:19:05.779Z,98495.59
2022-11-18T15:21:33.889Z,98488.19
2022-11-18T15:24:00.632Z,98488.41
2022-11-18T15:26:37.094Z,98494.59
2022-11-18T15:29:04.863Z,98490.66
2022-11-18T15:31:31.642Z,98489.09
2022-11-18T15:34:03.453Z,98489.25
2022-11-18T15:36:33.306Z,98494.47
2022-11-18T15:39:00.101Z,98502.22
2022-11-18T15:41:30.782Z,98504.06
2022-11-18T15:44:01.182Z,98501.72
2022-11-18T15:46:30.123Z,98503.59
2022-11-18T15:49:00.687Z,98508.88
2022-11-18T15:51:30.051Z,98514.13
2022-11-18T15:53:57.200Z,98510.09
2022-11-18T15:56:23.845Z,98511.09
2022-11-18T15:59:00.108Z,98505.38
2022-11-18T16:01:39.037Z,98505.53
2022-11-18T16:04:10.111Z,98510.88
2022-11-18T16:06:37.287Z,98501.69
2022-11-18T16:09:06.489Z,98504.38
2022-11-18T16:11:51.672Z,98509.59
2022-11-18T16:14:21.631Z,98510.59
2022-11-18T16:16:51.606Z,98511.59
2022-11-18T16:19:22.384Z,98515.94
2022-11-18T16:21:52.866Z,98525.38
2022-11-18T16:24:26.284Z,98524.56
2022-11-18T16:26:53.326Z,98529.78
2022-11-18T16:29:20.740Z,98539.09
2022-11-18T16:31:54.039Z,98538.41
2022-11-18T16:34:28.191Z,98535.06
2022-11-18T16:37:02.069Z,98529.19
2022-11-18T16:39:29.532Z,98532.69
2022-11-18T16:42:08.330Z,98540.34
2022-11-18T16:44:36.842Z,98542.13
2022-11-18T16:47:12.459Z,98550.63
2022-11-18T16:49:41.341Z,98544.78
2022-11-18T16:52:08.781Z,98545.59
2022-11-18T16:54:41.072Z,98545.69
2022-11-18T16:57:11.820Z,98554.25
2022-11-18T16:59:38.553Z,98563.56
2022-11-18T17:02:06.487Z,98563.69
2022-11-18T17:04:36.131Z,98565.34
2022-11-18T17:07:03.223Z,98566.28
2022-11-18T17:09:30.136Z,98560.38
2022-11-18T17:11:58.544Z,98566.34
2022-11-18T17:14:25.905Z,98556.22
2022-11-18T17:16:53.078Z,98575.75
2022-11-18T17:19:24.034Z,98573.22
2022-11-18T17:21:52.149Z,98573.28
2022-11-18T17:24:22.332Z,98579.25
2022-11-18T17:26:51.914Z,98576.75
2022-11-18T17:29:18.892Z,98571.69
2022-11-18T17:31:45.969Z,98572.59
2022-11-18T17:34:14.524Z,98579.41
2022-11-18T17:36:42.459Z,98585.38
2022-11-18T17:39:11.962Z,98583.75
2022-11-18T17:41:58.178Z,98590.63
2022-11-18T17:44:25.246Z,98597.56
2022-11-18T17:46:52.216Z,98596.00
2022-11-18T17:49:21.232Z,98592.69
2022-11-18T17:51:48.614Z,98602.13
2022-11-18T17:54:16.124Z,98609.00
2022-11-18T17:56:43.355Z,98605.69
2022-11-18T17:59:10.138Z,98606.63
2022-11-18T18:01:37.085Z,98621.16
2022-11-18T18:04:04.048Z,98611.97
2022-11-18T18:06:30.800Z,98610.44
2022-11-18T18:08:58.641Z,98614.03
2022-11-18T18:11:27.204Z,98623.50
2022-11-18T18:14:13.136Z,98619.41
2022-11-18T18:41:18.347Z,98629.53
2022-11-18T19:52:28.326Z,98665.97
2022-11-18T19:59:40.482Z,98665.16
2022-11-18T20:02:11.707Z,98666.03
2022-11-18T20:04:38.902Z,98665.13
2022-11-18T20:07:05.748Z,98668.09
2022-11-18T20:09:32.579Z,98664.53
2022-11-18T20:11:59.512Z,98671.41
2022-11-18T20:14:26.268Z,98661.44
2022-11-18T20:16:53.197Z,98666.56
2022-11-18T20:19:20.561Z,98672.53
2022-11-18T20:21:48.769Z,98669.09
2022-11-18T20:24:18.737Z,98668.31
2022-11-18T20:26:46.052Z,98668.31
2022-11-18T20:29:13.521Z,98663.22
2022-11-18T20:31:40.991Z,98668.34
2022-11-18T20:34:11.094Z,98663.28
2022-11-18T20:36:37.972Z,98665.00
2022-11-18T20:39:11.039Z,98673.44
2022-11-18T20:41:37.977Z,98670.09
2022-11-18T20:44:05.267Z,98669.25
2022-11-18T20:46:34.337Z,98674.34
2022-11-18T20:49:01.667Z,98671.00
2022-11-18T20:51:29.498Z,98677.75
2022-11-18T20:53:57.769Z,98675.19
2022-11-18T20:56:27.337Z,98673.50
2022-11-18T20:58:57.235Z,98681.06
2022-11-18T21:01:28.051Z,98682.78
2022-11-18T21:04:00.857Z,98679.34
2022-11-18T21:06:30.994Z,98676.84
2022-11-18T21:09:04.936Z,98677.69
2022-11-18T21:11:35.742Z,98685.25
2022-11-18T21:14:25.310Z,98686.88
2022-11-18T21:17:00.574Z,98692.81
2022-11-18T21:19:28.987Z,98692.00
2022-11-18T21:21:56.899Z,98701.28
2022-11-18T21:24:32.600Z,98704.59
2022-11-18T21:27:01.154Z,98690.28
2022-11-18T21:29:31.321Z,98697.84
2022-11-18T21:32:02.364Z,98691.13
2022-11-18T21:34:30.126Z,98686.03
2022-11-18T21:36:57.202Z,98700.44
2022-11-18T21:39:25.197Z,98688.59
2022-11-18T21:41:56.149Z,98693.72
2022-11-18T21:44:23.582Z,98692.81
2022-11-18T21:46:50.370Z,98688.59
2022-11-18T21:49:17.591Z,98699.59
2022-11-18T21:51:45.417Z,98697.00
2022-11-18T21:54:12.861Z,98704.59
2022-11-18T21:56:39.795Z,98708.00
2022-11-18T21:59:07.534Z,98707.97
2022-11-18T22:01:34.643Z,98715.56
2022-11-18T22:04:04.413Z,98707.97
2022-11-18T22:06:33.797Z,98705.41
2022-11-18T22:09:02.987Z,98713.03
2022-11-18T22:11:30.217Z,98710.50
2022-11-18T22:13:57.233Z,98716.38
2022-11-18T22:16:25.859Z,98717.19
2022-11-18T22:19:00.234Z,98724.00
2022-11-18T22:21:28.120Z,98724.00
2022-11-18T22:23:59.900Z,98724.00
2022-11-18T22:26:27.936Z,98719.78
2022-11-18T22:28:57.619Z,98726.53
2022-11-18T22:31:27.192Z,98720.59
2022-11-18T22:33:55.929Z,98723.13
2022-11-18T22:36:26.010Z,98729.06
2022-11-18T22:38:54.664Z,98725.69
2022-11-18T22:41:43.904Z,98729.06
2022-11-18T22:44:13.962Z,98727.38
2022-11-18T22:46:42.988Z,98728.25
2022-11-18T22:49:11.938Z,98733.31
2022-11-18T22:51:50.263Z,98734.19
2022-11-18T22:54:37.912Z,98721.56
2022-11-18T22:57:09.805Z,98721.66
2022-11-18T22:59:36.578Z,98724.34
2022-11-18T23:02:03.366Z,98726.03
2022-11-18T23:04:32.781Z,98727.78
2022-11-18T23:06:59.542Z,98730.44
2022-11-18T23:09:26.356Z,98727.13
2022-11-18T23:12:11.797Z,98737.31
2022-11-18T23:14:38.562Z,98739.91
2022-11-18T23:17:05.635Z,98735.69
2022-11-18T23:19:32.411Z,98734.03
2022-11-18T23:21:59.211Z,98745.84
2022-11-18T23:24:25.924Z,98741.66
2022-11-18T23:26:52.612Z,98748.41
2022-11-18T23:29:20.342Z,98755.16
2022-11-18T23:31:47.319Z,98755.19
2022-11-18T23:34:15.694Z,98752.69
2022-11-18T23:36:43.098Z,98753.59
2022-11-18T23:39:10.363Z,98752.75
2022-11-18T23:41:37.412Z,98755.28
2022-11-18T23:44:05.259Z,98757.78
2022-11-18T23:46:33.092Z,98755.19
2022-11-18T23:49:00.083Z,98754.34
2022-11-18T23:51:26.813Z,98765.28
2022-11-18T23:53:56.748Z,98753.44
2022-11-18T23:56:27.007Z,98758.53
2022-11-18T23:58:56.619Z,98753.53
